createdAt,value
2022-10-14T00:01:21.704Z,6.70
2022-10-14T00:03:49.985Z,7.25
2022-10-14T00:06:23.863Z,6.97
2022-10-14T00:08:51.736Z,7.35
2022-10-14T00:11:22.024Z,6.93
2022-10-14T00:13:50.360Z,6.07
2022-10-14T00:16:24.906Z,6.70
2022-10-14T00:18:52.412Z,5.78
2022-10-14T00:21:20.422Z,6.63
2022-10-14T00:23:48.212Z,6.10
2022-10-14T00:26:22.215Z,6.13
2022-10-14T00:28:50.482Z,5.95
2022-10-14T00:31:18.466Z,5.95
2022-10-14T00:33:48.438Z,5.95
2022-10-14T00:36:19.014Z,5.70
2022-10-14T00:38:47.730Z,5.65
2022-10-14T00:41:18.531Z,6.05
2022-10-14T00:44:03.169Z,5.63
2022-10-14T00:49:23.049Z,5.65
2022-10-14T00:52:09.047Z,5.53
2022-10-14T00:54:43.327Z,5.20
2022-10-14T00:57:11.675Z,5.47
2022-10-14T00:59:39.356Z,6.35
2022-10-14T01:02:06.867Z,5.20
2022-10-14T01:04:37.937Z,5.60
2022-10-14T01:07:26.337Z,5.47
2022-10-14T01:10:18.020Z,5.55
2022-10-14T01:13:10.021Z,5.55
2022-10-14T01:15:56.305Z,6.15
2022-10-14T01:18:52.673Z,6.07
2022-10-14T01:21:36.910Z,6.10
2022-10-14T01:24:30.613Z,6.70
2022-10-14T01:27:20.172Z,6.20
2022-10-14T01:29:56.599Z,6.38
2022-10-14T01:32:31.518Z,6.03
2022-10-14T01:35:13.361Z,6.13
2022-10-14T01:37:50.121Z,5.80
2022-10-14T01:40:35.344Z,5.97
2022-10-14T01:43:05.777Z,4.88
2022-10-14T01:48:06.603Z,5.30
2022-10-14T01:50:36.556Z,5.45
2022-10-14T01:53:14.993Z,5.25
2022-10-14T01:55:46.147Z,5.07
2022-10-14T01:58:16.613Z,5.35
2022-10-14T02:00:44.617Z,5.15
2022-10-14T02:03:13.880Z,5.15
2022-10-14T02:05:45.163Z,5.22
2022-10-14T02:08:23.112Z,5.57
2022-10-14T02:13:44.944Z,5.00
2022-10-14T02:16:26.070Z,5.10
2022-10-14T02:19:01.426Z,6.30
2022-10-14T02:21:36.230Z,5.15
2022-10-14T02:24:26.658Z,5.32
2022-10-14T02:26:58.259Z,6.00
2022-10-14T02:29:28.038Z,6.30
2022-10-14T02:31:57.962Z,5.32
2022-10-14T02:34:26.078Z,5.30
2022-10-14T02:36:55.665Z,5.63
2022-10-14T02:39:34.887Z,6.10
2022-10-14T02:42:05.626Z,5.10
2022-10-14T02:47:02.609Z,4.82
2022-10-14T02:49:31.101Z,5.45
2022-10-14T02:51:58.668Z,5.78
2022-10-14T02:54:26.129Z,5.38
2022-10-14T02:56:53.546Z,5.50
2022-10-14T03:01:51.389Z,5.47
2022-10-14T03:04:21.112Z,5.40
2022-10-14T03:06:48.537Z,6.03
2022-10-14T03:09:16.246Z,5.60
2022-10-14T03:11:44.805Z,5.97
2022-10-14T03:14:17.114Z,5.78
2022-10-14T03:16:45.029Z,5.80
2022-10-14T03:19:18.037Z,5.72
2022-10-14T03:21:49.161Z,6.13
2022-10-14T03:24:20.282Z,6.47
2022-10-14T03:26:54.679Z,6.05
2022-10-14T03:29:25.734Z,6.25
2022-10-14T03:31:59.864Z,6.35
2022-10-14T03:34:50.501Z,6.30
2022-10-14T03:37:23.571Z,6.97
2022-10-14T03:39:54.032Z,7.30
2022-10-14T03:42:22.355Z,6.28
2022-10-14T03:44:50.956Z,7.25
2022-10-14T03:47:29.331Z,7.22
2022-10-14T03:49:57.007Z,7.90
2022-10-14T03:52:33.496Z,8.15
2022-10-14T03:55:21.216Z,9.13
2022-10-14T03:57:51.187Z,8.63
2022-10-14T04:00:19.547Z,9.00
2022-10-14T04:02:55.271Z,8.57
2022-10-14T04:05:33.800Z,8.60
2022-10-14T04:08:05.249Z,9.18
2022-10-14T04:10:33.017Z,9.63
2022-10-14T04:13:01.193Z,8.95
2022-10-14T04:15:36.511Z,8.85
2022-10-14T04:18:15.894Z,8.90
2022-10-14T04:20:44.475Z,9.85
2022-10-14T04:23:12.573Z,9.80
2022-10-14T04:25:42.457Z,10.65
2022-10-14T04:28:09.916Z,9.63
2022-10-14T04:30:50.718Z,9.77
2022-10-14T04:33:24.284Z,9.75
2022-10-14T04:36:00.772Z,9.80
2022-10-14T04:38:34.389Z,9.73
2022-10-14T04:41:06.627Z,9.70
2022-10-14T04:43:35.566Z,9.02
2022-10-14T04:46:18.373Z,9.65
2022-10-14T04:48:48.185Z,9.20
2022-10-14T04:51:17.219Z,10.10
2022-10-14T04:54:04.443Z,8.32
2022-10-14T04:56:42.326Z,9.48
2022-10-14T04:59:11.985Z,9.32
2022-10-14T05:02:14.928Z,8.57
2022-10-14T05:04:49.342Z,9.88
2022-10-14T05:07:17.650Z,9.15
2022-10-14T05:09:50.388Z,9.20
2022-10-14T05:12:29.129Z,8.23
2022-10-14T05:15:00.872Z,8.23
2022-10-14T05:17:37.613Z,9.32
2022-10-14T05:20:06.916Z,8.63
2022-10-14T05:22:36.230Z,8.10
2022-10-14T05:25:05.225Z,7.65
2022-10-14T05:27:32.965Z,6.82
2022-10-14T05:30:02.616Z,6.93
2022-10-14T05:32:30.645Z,8.30
2022-10-14T05:35:05.006Z,8.02
2022-10-14T05:37:37.679Z,7.57
2022-10-14T05:40:05.814Z,7.88
2022-10-14T05:42:36.155Z,7.57
2022-10-14T05:45:04.895Z,6.65
2022-10-14T05:47:34.900Z,7.20
2022-10-14T05:50:12.297Z,6.80
2022-10-14T05:52:43.141Z,6.80
2022-10-14T05:55:17.944Z,6.70
2022-10-14T05:57:46.828Z,6.65
2022-10-14T06:00:24.641Z,6.22
2022-10-14T06:02:59.594Z,6.18
2022-10-14T06:05:27.954Z,7.43
2022-10-14T06:07:55.430Z,6.70
2022-10-14T06:10:23.021Z,6.15
2022-10-14T06:12:50.616Z,6.35
2022-10-14T06:15:18.244Z,6.88
2022-10-14T06:17:46.021Z,7.93
2022-10-14T06:20:13.595Z,7.05
2022-10-14T06:22:41.259Z,7.03
2022-10-14T06:25:09.124Z,5.72
2022-10-14T06:27:36.718Z,5.75
2022-10-14T06:30:04.590Z,6.10
2022-10-14T06:32:32.285Z,6.15
2022-10-14T06:35:00.400Z,6.15
2022-10-14T06:37:27.974Z,6.45
2022-10-14T06:39:55.452Z,6.22
2022-10-14T06:42:23.288Z,6.32
2022-10-14T06:44:51.496Z,5.68
2022-10-14T06:47:19.048Z,6.45
2022-10-14T06:49:48.791Z,5.78
2022-10-14T06:52:16.544Z,4.80
2022-10-14T06:54:48.135Z,5.38
2022-10-14T06:57:17.043Z,5.68
2022-10-14T06:59:44.958Z,5.55
2022-10-14T07:02:12.686Z,6.07
2022-10-14T07:04:41.103Z,5.25
2022-10-14T07:07:09.125Z,5.50
2022-10-14T07:09:37.388Z,5.47
2022-10-14T07:12:05.034Z,5.47
2022-10-14T07:14:32.517Z,5.40
2022-10-14T07:17:00.603Z,5.88
2022-10-14T07:19:28.020Z,5.65
2022-10-14T07:21:55.635Z,5.57
2022-10-14T07:24:23.282Z,5.32
2022-10-14T07:26:50.857Z,6.22
2022-10-14T07:29:18.540Z,5.90
2022-10-14T07:31:46.021Z,6.07
2022-10-14T07:34:13.708Z,5.93
2022-10-14T07:36:41.294Z,6.30
2022-10-14T07:39:08.888Z,5.68
2022-10-14T07:41:36.722Z,5.43
2022-10-14T07:44:08.534Z,5.68
2022-10-14T07:46:39.280Z,5.80
2022-10-14T07:49:25.002Z,4.80
2022-10-14T07:51:53.038Z,5.60
2022-10-14T07:54:23.885Z,5.50
2022-10-14T07:56:51.837Z,5.55
2022-10-14T07:59:21.139Z,5.35
2022-10-14T08:01:50.669Z,5.43
2022-10-14T08:04:18.892Z,5.13
2022-10-14T08:06:49.921Z,5.82
2022-10-14T08:09:19.366Z,5.65
2022-10-14T08:11:47.325Z,5.05
2022-10-14T08:14:14.931Z,4.90
2022-10-14T08:16:45.419Z,4.68
2022-10-14T08:19:14.881Z,5.32
2022-10-14T08:21:43.624Z,5.53
2022-10-14T08:24:11.687Z,4.95
2022-10-14T08:26:48.913Z,3.58
2022-10-14T08:29:17.097Z,3.67
2022-10-14T08:31:44.571Z,3.00
2022-10-14T08:34:12.350Z,2.97
2022-10-14T08:36:40.657Z,3.13
2022-10-14T08:42:11.432Z,2.70
2022-10-14T08:44:55.780Z,2.42
2022-10-14T08:47:28.220Z,2.38
2022-10-14T08:50:16.913Z,2.65
2022-10-14T08:52:48.355Z,2.50
2022-10-14T08:55:36.062Z,2.60
2022-10-14T08:58:10.555Z,2.50
2022-10-14T09:00:42.199Z,2.40
2022-10-14T09:03:21.327Z,2.75
2022-10-14T09:06:07.141Z,2.22
2022-10-14T09:08:40.581Z,2.38
2022-10-14T09:11:15.081Z,2.53
2022-10-14T09:13:49.683Z,2.28
2022-10-14T09:16:30.881Z,1.95
2022-10-14T09:19:01.854Z,2.25
2022-10-14T09:21:54.493Z,2.08
2022-10-14T09:24:23.413Z,1.70
2022-10-14T09:26:58.101Z,2.05
2022-10-14T09:29:36.185Z,1.65
2022-10-14T09:32:07.385Z,1.98
2022-10-14T09:34:50.699Z,1.65
2022-10-14T09:37:22.290Z,1.58
2022-10-14T09:39:51.869Z,2.63
2022-10-14T09:42:24.171Z,1.58
2022-10-14T09:45:08.774Z,1.20
2022-10-14T09:47:59.412Z,1.30
2022-10-14T09:50:48.417Z,1.60
2022-10-14T09:53:23.479Z,1.50
2022-10-14T09:56:03.039Z,1.42
2022-10-14T09:58:36.149Z,1.63
2022-10-14T10:01:04.468Z,1.50
2022-10-14T10:03:35.146Z,1.77
2022-10-14T10:06:08.703Z,1.73
2022-10-14T10:08:39.515Z,2.10
2022-10-14T10:11:11.494Z,1.20
2022-10-14T10:13:41.461Z,1.42
2022-10-14T10:16:20.432Z,1.58
2022-10-14T10:18:49.182Z,1.55
2022-10-14T10:21:22.257Z,1.40
2022-10-14T10:23:53.702Z,1.70
2022-10-14T10:26:32.039Z,1.40
2022-10-14T10:29:02.952Z,1.80
2022-10-14T10:32:08.291Z,1.38
2022-10-14T10:35:00.056Z,2.15
2022-10-14T10:37:30.907Z,1.80
2022-10-14T10:40:21.254Z,1.40
2022-10-14T10:42:51.939Z,2.00
2022-10-14T10:45:39.275Z,1.58
2022-10-14T10:48:28.114Z,2.00
2022-10-14T10:51:23.579Z,1.58
2022-10-14T10:54:09.982Z,2.25
2022-10-14T10:56:54.525Z,1.88
2022-10-14T10:59:56.399Z,2.05
2022-10-14T11:02:55.055Z,1.98
2022-10-14T11:05:50.706Z,2.00
2022-10-14T11:09:11.516Z,2.25
2022-10-14T11:12:09.807Z,1.90
2022-10-14T11:15:07.499Z,2.58
2022-10-14T11:17:57.200Z,2.20
2022-10-14T11:20:37.175Z,2.63
2022-10-14T11:23:27.212Z,2.60
2022-10-14T11:26:02.664Z,2.05
2022-10-14T11:28:30.212Z,2.65
2022-10-14T11:31:17.802Z,2.60
2022-10-14T11:34:07.751Z,2.25
2022-10-14T11:36:47.326Z,2.72
2022-10-14T11:39:45.575Z,2.40
2022-10-14T11:42:17.997Z,2.92
2022-10-14T11:44:45.484Z,2.80
2022-10-14T11:47:35.819Z,2.33
2022-10-14T11:50:11.598Z,2.92
2022-10-14T11:52:46.688Z,3.08
2022-10-14T11:55:23.561Z,3.10
2022-10-14T11:57:56.776Z,3.90
2022-10-14T12:00:29.642Z,4.40
2022-10-14T12:03:25.500Z,4.13
2022-10-14T12:06:04.143Z,4.97
2022-10-14T12:08:46.323Z,3.75
2022-10-14T12:11:26.174Z,4.35
2022-10-14T12:14:15.731Z,4.40
2022-10-14T12:16:46.236Z,4.43
2022-10-14T12:19:21.902Z,3.33
2022-10-14T12:22:05.218Z,2.10
2022-10-14T12:24:39.597Z,2.45
2022-10-14T12:27:12.859Z,1.63
2022-10-14T12:29:52.769Z,1.52
2022-10-14T12:32:27.292Z,1.63
2022-10-14T12:34:56.673Z,1.88
2022-10-14T12:37:35.250Z,1.80
2022-10-14T12:40:06.846Z,1.92
2022-10-14T12:42:58.661Z,1.75
2022-10-14T12:45:29.149Z,1.50
2022-10-14T12:48:20.993Z,1.50
2022-10-14T12:50:54.612Z,1.23
2022-10-14T12:53:33.084Z,1.40
2022-10-14T12:56:03.204Z,1.55
2022-10-14T13:01:14.879Z,1.33
2022-10-14T13:03:53.729Z,1.48
2022-10-14T13:06:42.553Z,1.77
2022-10-14T13:09:13.155Z,1.10
2022-10-14T13:11:42.952Z,1.20
2022-10-14T13:14:54.938Z,1.00
2022-10-14T13:17:46.930Z,1.20
2022-10-14T13:20:36.286Z,1.33
2022-10-14T13:23:36.673Z,1.40
2022-10-14T13:26:26.898Z,1.30
2022-10-14T13:29:16.265Z,1.40
2022-10-14T13:32:01.334Z,1.35
2022-10-14T13:34:43.617Z,1.48
2022-10-14T13:37:39.749Z,1.20
2022-10-14T13:40:12.910Z,1.50
2022-10-14T13:42:40.686Z,1.38
2022-10-14T13:45:15.090Z,1.50
2022-10-14T13:47:48.284Z,2.15
2022-10-14T13:50:23.178Z,1.35
2022-10-14T13:52:58.057Z,1.90
2022-10-14T13:55:27.140Z,1.70
2022-10-14T13:58:17.458Z,2.35
2022-10-14T14:00:58.100Z,1.65
2022-10-14T14:03:36.137Z,1.48
2022-10-14T14:06:11.253Z,1.50
2022-10-14T14:08:50.301Z,1.40
2022-10-14T14:11:24.525Z,1.40
2022-10-14T14:14:03.446Z,1.27
2022-10-14T14:16:41.691Z,1.50
2022-10-14T14:19:25.120Z,1.70
2022-10-14T14:22:28.063Z,1.35
2022-10-14T14:28:05.946Z,1.23
2022-10-14T14:30:39.419Z,1.23
2022-10-14T14:33:21.570Z,1.27
2022-10-14T14:36:01.681Z,1.30
2022-10-14T14:38:35.263Z,1.50
2022-10-14T14:41:16.979Z,1.27
2022-10-14T14:43:53.380Z,1.33
2022-10-14T14:46:34.432Z,1.40
2022-10-14T14:49:03.940Z,1.38
2022-10-14T14:51:40.391Z,1.75
2022-10-14T14:54:14.487Z,1.17
2022-10-14T14:56:48.545Z,1.13
2022-10-14T14:59:43.539Z,1.30
2022-10-14T15:02:17.227Z,1.10
2022-10-14T15:05:06.662Z,1.30
2022-10-14T15:07:35.717Z,1.20
2022-10-14T15:10:08.614Z,1.33
2022-10-14T15:12:50.780Z,1.30
2022-10-14T15:15:31.053Z,1.33
2022-10-14T15:18:27.872Z,1.60
2022-10-14T15:21:05.523Z,1.45
2022-10-14T15:23:47.995Z,1.55
2022-10-14T15:26:34.899Z,1.23
2022-10-14T15:29:08.040Z,1.30
2022-10-14T15:31:37.186Z,1.65
2022-10-14T15:34:06.055Z,1.38
2022-10-14T15:36:34.610Z,1.52
2022-10-14T15:39:02.498Z,1.77
2022-10-14T15:41:30.146Z,1.65
2022-10-14T15:44:00.437Z,1.70
2022-10-14T15:46:46.778Z,1.77
2022-10-14T15:49:31.019Z,1.77
2022-10-14T15:51:58.515Z,2.10
2022-10-14T15:54:27.484Z,3.10
2022-10-14T15:59:30.258Z,2.45
2022-10-14T16:01:58.864Z,4.40
2022-10-14T16:04:28.025Z,4.32
2022-10-14T16:06:57.610Z,2.72
2022-10-14T16:09:27.839Z,2.45
2022-10-14T16:11:58.285Z,2.40
2022-10-14T16:14:27.151Z,2.40
2022-10-14T16:16:55.623Z,2.33
2022-10-14T16:19:23.129Z,2.75
2022-10-14T16:21:52.333Z,3.13
2022-10-14T16:24:25.491Z,3.00
2022-10-14T16:26:53.752Z,2.90
2022-10-14T16:29:22.199Z,3.00
2022-10-14T16:31:52.040Z,2.72
2022-10-14T16:34:21.353Z,2.50
2022-10-14T16:36:50.055Z,2.70
2022-10-14T16:39:19.779Z,3.17
2022-10-14T16:41:48.597Z,2.53
2022-10-14T16:44:25.155Z,2.70
2022-10-14T16:47:16.140Z,2.75
2022-10-14T16:49:46.105Z,2.47
2022-10-14T16:52:14.696Z,2.55
2022-10-14T16:54:42.444Z,2.25
2022-10-14T16:57:10.673Z,2.80
2022-10-14T16:59:38.604Z,3.13
2022-10-14T17:02:11.017Z,2.78
2022-10-14T17:04:39.321Z,2.97
2022-10-14T17:07:07.934Z,3.03
2022-10-14T17:09:36.674Z,3.25
2022-10-14T17:12:08.148Z,2.90
2022-10-14T17:14:38.941Z,2.50
2022-10-14T17:17:06.837Z,2.85
2022-10-14T17:19:34.580Z,2.80
2022-10-14T17:22:03.448Z,3.00
2022-10-14T17:24:31.236Z,2.72
2022-10-14T17:26:58.927Z,3.10
2022-10-14T17:29:28.707Z,3.50
2022-10-14T17:31:56.205Z,3.05
2022-10-14T17:34:23.970Z,3.60
2022-10-14T17:36:52.089Z,3.33
2022-10-14T17:39:25.888Z,3.60
2022-10-14T17:41:57.948Z,3.70
2022-10-14T17:44:25.886Z,4.00
2022-10-14T17:46:54.628Z,4.10
2022-10-14T17:49:22.345Z,3.10
2022-10-14T17:51:49.814Z,4.97
2022-10-14T17:54:17.509Z,2.95
2022-10-14T17:56:44.954Z,3.88
2022-10-14T17:59:14.138Z,4.00
2022-10-14T18:04:29.771Z,3.25
2022-10-14T18:06:58.604Z,2.53
2022-10-14T18:09:26.153Z,2.40
2022-10-14T18:12:08.169Z,2.35
2022-10-14T18:14:40.994Z,2.67
2022-10-14T18:17:12.484Z,2.75
2022-10-14T18:19:41.291Z,3.08
2022-10-14T18:22:10.808Z,3.20
2022-10-14T18:24:39.362Z,2.97
2022-10-14T18:27:07.513Z,3.35
2022-10-14T18:29:35.279Z,2.92
2022-10-14T18:32:02.890Z,3.72
2022-10-14T18:34:30.330Z,3.55
2022-10-14T18:36:57.844Z,3.80
2022-10-14T18:39:25.454Z,3.75
2022-10-14T18:41:52.899Z,3.28
2022-10-14T18:44:20.457Z,2.67
2022-10-14T18:46:47.871Z,3.20
2022-10-14T18:49:15.419Z,2.35
2022-10-14T18:51:43.508Z,2.13
2022-10-14T18:54:15.709Z,2.33
2022-10-14T18:56:44.482Z,2.05
2022-10-14T18:59:23.254Z,2.10
2022-10-14T19:01:53.370Z,2.20
2022-10-14T19:04:23.846Z,2.75
2022-10-14T19:06:51.648Z,2.50
2022-10-14T19:09:29.486Z,2.42
2022-10-14T19:11:59.178Z,2.65
2022-10-14T19:14:28.763Z,2.80
2022-10-14T19:16:56.352Z,2.45
2022-10-14T19:19:23.870Z,2.50
2022-10-14T19:21:54.489Z,2.10
2022-10-14T19:24:22.175Z,2.55
2022-10-14T19:26:50.191Z,2.22
2022-10-14T19:29:17.910Z,2.47
2022-10-14T19:31:45.825Z,2.50
2022-10-14T19:34:15.875Z,2.47
2022-10-14T19:36:44.501Z,3.05
2022-10-14T19:39:14.846Z,2.33
2022-10-14T19:41:44.539Z,2.67
2022-10-14T19:44:13.865Z,2.70
2022-10-14T19:46:42.295Z,3.22
2022-10-14T19:49:14.866Z,3.35
2022-10-14T19:51:42.601Z,3.35
2022-10-14T19:54:11.887Z,3.58
2022-10-14T19:56:39.617Z,3.53
2022-10-14T19:59:07.251Z,3.90
2022-10-14T20:01:35.166Z,3.58
2022-10-14T20:04:03.112Z,3.92
2022-10-14T20:06:35.996Z,3.50
2022-10-14T20:09:04.858Z,3.97
2022-10-14T20:11:32.333Z,3.47
2022-10-14T20:13:59.900Z,3.92
2022-10-14T20:16:27.561Z,3.58
2022-10-14T20:18:56.434Z,3.42
2022-10-14T20:21:24.345Z,3.47
2022-10-14T20:23:51.951Z,2.97
2022-10-14T20:26:21.592Z,2.85
2022-10-14T20:28:49.868Z,2.60
2022-10-14T20:31:19.936Z,2.70
2022-10-14T20:33:47.461Z,2.75
2022-10-14T20:36:19.813Z,2.47
2022-10-14T20:38:48.393Z,2.47
2022-10-14T20:41:17.648Z,2.30
2022-10-14T20:43:45.939Z,2.28
2022-10-14T20:46:14.328Z,2.60
2022-10-14T20:48:42.062Z,2.28
2022-10-14T20:51:12.832Z,2.35
2022-10-14T20:56:10.966Z,2.05
2022-10-14T20:58:39.014Z,2.42
2022-10-14T21:01:15.227Z,2.28
2022-10-14T21:03:45.231Z,1.73
2022-10-14T21:06:15.874Z,2.20
2022-10-14T21:08:43.682Z,2.60
2022-10-14T21:11:15.733Z,2.05
2022-10-14T21:13:48.538Z,2.03
2022-10-14T21:16:26.905Z,2.13
2022-10-14T21:18:58.021Z,1.98
2022-10-14T21:21:27.590Z,2.00
2022-10-14T21:23:55.580Z,1.90
2022-10-14T21:26:23.567Z,2.00
2022-10-14T21:28:52.369Z,1.98
2022-10-14T21:31:20.707Z,2.40
2022-10-14T21:33:54.270Z,2.00
2022-10-14T21:36:21.785Z,2.50
2022-10-14T21:38:49.702Z,2.65
2022-10-14T21:41:17.572Z,3.30
2022-10-14T21:43:45.203Z,3.83
2022-10-14T21:46:15.172Z,4.13
2022-10-14T21:48:44.830Z,3.50
2022-10-14T21:51:14.953Z,3.47
2022-10-14T21:53:44.716Z,3.70
2022-10-14T21:56:14.066Z,3.28
2022-10-14T21:58:42.407Z,4.00
2022-10-14T22:01:16.278Z,3.85
2022-10-14T22:03:45.543Z,3.50
2022-10-14T22:06:15.969Z,3.85
2022-10-14T22:11:20.519Z,4.20
2022-10-14T22:13:48.297Z,3.70
2022-10-14T22:16:22.085Z,4.65
2022-10-14T22:18:51.171Z,4.20
2022-10-14T22:21:21.699Z,4.45
2022-10-14T22:23:50.382Z,3.95
2022-10-14T22:26:20.640Z,4.13
2022-10-14T22:28:48.947Z,5.32
2022-10-14T22:31:19.511Z,4.85
2022-10-14T22:36:20.834Z,4.65
2022-10-14T22:38:53.035Z,4.03
2022-10-14T22:41:24.256Z,4.00
2022-10-14T22:43:55.119Z,3.50
2022-10-14T22:46:28.409Z,3.38
2022-10-14T22:48:57.048Z,3.60
2022-10-14T22:51:36.395Z,3.80
2022-10-14T22:54:04.394Z,3.70
2022-10-14T22:56:32.591Z,3.50
2022-10-14T22:59:06.024Z,3.30
2022-10-14T23:01:34.677Z,3.55
2022-10-14T23:04:02.728Z,2.78
2022-10-14T23:06:31.001Z,2.90
2022-10-14T23:09:01.647Z,2.97
2022-10-14T23:11:31.325Z,2.35
2022-10-14T23:14:02.759Z,2.63
2022-10-14T23:16:33.820Z,2.70
2022-10-14T23:19:01.326Z,3.47
2022-10-14T23:21:31.617Z,3.20
2022-10-14T23:24:01.597Z,3.20
2022-10-14T23:26:34.531Z,3.30
2022-10-14T23:29:08.722Z,3.50
2022-10-14T23:31:37.850Z,3.70
2022-10-14T23:34:10.389Z,4.05
2022-10-14T23:36:38.310Z,3.95
2022-10-14T23:39:06.150Z,4.20
2022-10-14T23:41:33.871Z,3.72
2022-10-14T23:44:01.432Z,4.38
2022-10-14T23:46:29.003Z,4.22
2022-10-14T23:49:06.752Z,4.03
2022-10-14T23:51:41.852Z,3.88
2022-10-14T23:54:09.359Z,4.43
2022-10-14T23:56:36.821Z,5.15
2022-10-14T23:59:04.350Z,5.07
